Time;durP1;ratioP1;P1;durP2;ratioP2;P2;SDS_P1;SDS_P2;PMS_P1;PMS_P2;Temp;Humidity;BMP_temperature;BMP_pressure;BME280_temperature;BME280_humidity;BME280_pressure;Samples;Min_cycle;Max_cycle;Signal;HPM_P1;HPM_P2
2023/10/29 00:01:51;;;;;;;11.13;4.45;;;;;;;15.15;65.52;99455.16;5070530;28;20036;-82
2023/10/29 00:04:16;;;;;;;13.63;4.78;;;;;;;15.19;65.92;99483.38;5072226;28;20067;-80
2023/10/29 00:06:42;;;;;;;7.10;3.95;;;;;;;15.10;65.43;99460.66;5070319;28;20025;-80
2023/10/29 00:09:07;;;;;;;8.05;4.25;;;;;;;15.06;66.29;99482.97;5070580;28;20035;-80
2023/10/29 00:11:33;;;;;;;12.23;4.50;;;;;;;15.02;66.51;99478.69;5070122;28;20032;-80
2023/10/29 00:13:59;;;;;;;10.10;5.05;;;;;;;15.03;66.49;99509.63;5071202;28;20024;-80
2023/10/29 00:16:25;;;;;;;14.32;4.75;;;;;;;14.71;66.36;99513.44;5070398;28;20056;-80
2023/10/29 00:18:50;;;;;;;11.10;4.18;;;;;;;14.57;66.63;99519.19;5076249;28;20066;-80
2023/10/29 00:21:16;;;;;;;10.30;5.28;;;;;;;14.30;67.68;99484.69;5090814;28;20055;-80
2023/10/29 00:23:41;;;;;;;6.82;4.80;;;;;;;14.20;66.76;99467.38;5091113;28;20028;-80
2023/10/29 00:26:07;;;;;;;7.80;4.88;;;;;;;14.40;67.89;99493.22;5088404;28;20062;-80
2023/10/29 00:28:32;;;;;;;19.35;5.28;;;;;;;14.48;68.27;99523.88;5090507;28;20027;-80
2023/10/29 00:30:58;;;;;;;12.98;4.18;;;;;;;14.42;67.84;99531.19;5090652;28;20035;-80
2023/10/29 00:33:24;;;;;;;9.80;4.38;;;;;;;14.51;67.77;99513.16;5080194;28;20453;-80
2023/10/29 00:35:49;;;;;;;13.90;4.80;;;;;;;14.66;67.68;99534.84;5071757;28;20032;-79
2023/10/29 00:38:15;;;;;;;11.65;4.32;;;;;;;14.61;68.61;99537.66;5070002;28;20029;-80
2023/10/29 00:40:40;;;;;;;9.55;4.55;;;;;;;14.28;68.29;99489.19;5070293;28;20176;-80
2023/10/29 00:43:06;;;;;;;8.20;4.57;;;;;;;14.47;69.15;99535.44;5070254;28;20414;-79
2023/10/29 00:45:31;;;;;;;;;;;;;;;14.56;68.72;99541.34;5070711;28;20060;-80
2023/10/29 00:47:58;;;;;;;14.70;5.18;;;;;;;14.43;67.93;99528.47;5070555;28;19920;-80
2023/10/29 00:50:24;;;;;;;7.40;4.43;;;;;;;14.63;68.32;99546.41;5072404;28;20082;-81
2023/10/29 00:52:50;;;;;;;15.70;4.90;;;;;;;14.66;67.90;99522.41;5090425;28;20036;-80
2023/10/29 00:55:17;;;;;;;8.75;5.47;;;;;;;14.45;67.67;99512.50;5089941;28;20111;-81
2023/10/29 00:57:42;;;;;;;10.30;4.47;;;;;;;14.35;67.29;99487.19;5088814;28;20040;-80
2023/10/29 01:00:08;;;;;;;18.25;4.43;;;;;;;14.37;67.18;99514.56;5090237;28;20020;-80
2023/10/29 01:02:34;;;;;;;7.07;3.88;;;;;;;14.32;67.74;99506.75;5090103;28;20039;-80
2023/10/29 01:05:01;;;;;;;8.65;4.30;;;;;;;14.26;69.27;99536.13;5093567;28;20023;-79
2023/10/29 01:07:26;;;;;;;13.13;4.05;;;;;;;14.29;68.64;99528.06;5093862;28;20031;-79
2023/10/29 01:09:59;;;;;;;8.70;4.07;;;;;;;14.38;68.84;99546.34;5077635;28;20115;-80
2023/10/29 01:12:27;;;;;;;9.50;4.47;;;;;;;14.42;69.28;99544.44;5076634;28;20043;-79
2023/10/29 01:14:52;;;;;;;7.82;4.35;;;;;;;14.23;69.38;99530.94;5077805;28;20531;-80
2023/10/29 01:17:20;;;;;;;8.88;4.10;;;;;;;14.38;68.91;99532.19;5076692;28;20051;-77
2023/10/29 01:19:49;;;;;;;9.80;3.88;;;;;;;14.27;69.17;99513.97;5088176;28;20047;-79
2023/10/29 01:22:19;;;;;;;7.72;4.05;;;;;;;14.06;68.96;99521.72;5094452;28;20036;-79
2023/10/29 01:24:45;;;;;;;8.48;4.13;;;;;;;14.17;69.38;99537.28;5074646;28;20036;-77
2023/10/29 01:27:11;;;;;;;11.32;4.32;;;;;;;14.23;69.50;99525.63;5076987;28;20024;-77
2023/10/29 01:29:38;;;;;;;8.35;3.40;;;;;;;14.35;69.64;99533.19;5077185;28;20438;-79
2023/10/29 01:32:04;;;;;;;8.10;3.92;;;;;;;14.55;68.73;99534.28;5074954;28;20028;-79
2023/10/29 01:34:29;;;;;;;6.35;3.88;;;;;;;14.26;68.84;99552.06;5076030;28;20479;-78
2023/10/29 01:36:55;;;;;;;13.85;4.05;;;;;;;13.97;69.96;99525.53;5077527;28;20445;-78
2023/10/29 01:39:20;;;;;;;8.75;4.18;;;;;;;14.11;68.48;99527.72;5076883;28;20493;-76
2023/10/29 01:41:46;;;;;;;7.57;3.67;;;;;;;13.85;68.52;99525.91;5076638;28;20431;-78
2023/10/29 01:44:11;;;;;;;;;;;;;;;13.62;69.45;99558.41;5077802;28;20082;-79
2023/10/29 01:46:37;;;;;;;8.32;3.83;;;;;;;13.69;70.25;99527.31;5076230;28;20011;-77
2023/10/29 01:49:09;;;;;;;5.57;3.15;;;;;;;13.68;71.18;99552.06;5079620;28;20107;-79
2023/10/29 01:51:35;;;;;;;7.90;5.25;;;;;;;13.90;70.70;99554.94;5077438;28;20127;-79
2023/10/29 01:54:00;;;;;;;10.75;4.07;;;;;;;14.10;70.59;99575.53;5078591;28;20027;-79
2023/10/29 01:56:30;;;;;;;9.70;3.90;;;;;;;14.26;70.17;99570.63;5092129;28;20037;-80
2023/10/29 01:58:56;;;;;;;5.70;3.40;;;;;;;14.07;70.14;99528.78;5078685;28;20109;-80
2023/10/29 02:01:22;;;;;;;17.65;3.33;;;;;;;14.27;69.81;99575.88;5093355;28;20027;-81
2023/10/29 02:03:48;;;;;;;9.13;3.70;;;;;;;14.14;69.85;99537.38;5074972;28;20032;-80
2023/10/29 02:06:20;;;;;;;6.63;3.83;;;;;;;14.10;69.38;99546.34;5075283;28;20028;-80
2023/10/29 02:08:48;;;;;;;7.30;3.88;;;;;;;14.27;70.11;99553.75;5077910;28;20562;-80
2023/10/29 02:11:14;;;;;;;;;;;;;;;14.19;69.48;99561.13;5077072;28;20034;-81
2023/10/29 02:13:39;;;;;;;;;;;;;;;14.26;70.02;99558.22;5092829;28;20004;-79
2023/10/29 02:16:04;;;;;;;6.82;3.13;;;;;;;14.18;69.95;99541.69;5095298;28;19912;-77
2023/10/29 02:18:37;;;;;;;6.45;3.38;;;;;;;14.44;69.38;99563.81;5096689;28;20063;-79
2023/10/29 02:21:02;;;;;;;9.85;4.07;;;;;;;14.38;68.82;99548.09;5089622;28;20028;-79
2023/10/29 02:23:31;;;;;;;13.68;4.57;;;;;;;14.16;69.40;99548.81;5080282;28;20047;-80
2023/10/29 02:25:56;;;;;;;6.20;3.10;;;;;;;13.93;69.58;99552.19;5095132;28;20039;-80
2023/10/29 02:28:22;;;;;;;9.55;3.45;;;;;;;14.13;69.50;99563.06;5078799;28;20423;-78
2023/10/29 02:30:50;;;;;;;10.63;5.07;;;;;;;13.94;70.04;99546.84;5079401;28;20497;-80
2023/10/29 02:33:18;;;;;;;6.90;3.58;;;;;;;14.17;69.81;99590.34;5078461;28;20028;-80
2023/10/29 02:35:46;;;;;;;8.68;3.72;;;;;;;14.27;70.02;99597.09;5071745;28;20172;-79
2023/10/29 02:38:14;;;;;;;6.53;2.92;;;;;;;14.03;69.94;99564.25;5075403;28;20032;-79
2023/10/29 02:40:41;;;;;;;11.23;2.92;;;;;;;14.37;69.71;99595.00;5075975;28;20036;-79
2023/10/29 02:43:07;;;;;;;9.70;3.65;;;;;;;14.49;68.81;99599.06;5077633;28;20032;-79
2023/10/29 02:45:34;;;;;;;7.47;2.95;;;;;;;14.09;69.26;99609.16;5090282;28;20035;-80
2023/10/29 02:47:59;;;;;;;14.65;4.43;;;;;;;13.49;67.48;99588.84;5091755;28;20035;-80
2023/10/29 02:50:25;;;;;;;6.22;3.17;;;;;;;13.27;67.94;99592.06;5092093;28;20036;-79
2023/10/29 02:52:50;;;;;;;;;;;;;;;13.32;68.15;99619.31;5092607;28;20028;-79
2023/10/29 02:55:15;;;;;;;8.27;3.15;;;;;;;13.46;68.40;99621.59;5090222;28;19969;-80
2023/10/29 02:57:41;;;;;;;5.78;3.83;;;;;;;13.23;69.44;99627.50;5092255;28;20047;-76
2023/10/29 03:00:07;;;;;;;;;;;;;;;13.32;70.29;99621.09;5077178;28;20029;-80
2023/10/29 03:02:32;;;;;;;8.48;4.43;;;;;;;13.39;70.69;99591.78;5071979;28;19989;-80
2023/10/29 03:04:57;;;;;;;5.93;3.88;;;;;;;13.50;70.72;99598.53;5071942;28;20051;-80
2023/10/29 03:07:23;;;;;;;;;;;;;;;13.52;70.78;99621.44;5072762;28;20029;-81
2023/10/29 03:09:49;;;;;;;;;;;;;;;13.55;70.38;99626.63;5072537;28;19969;-79
2023/10/29 03:12:14;;;;;;;15.30;4.15;;;;;;;13.28;70.48;99607.03;5071544;28;19912;-80
2023/10/29 03:14:39;;;;;;;;;;;;;;;13.43;70.25;99625.19;5071432;28;20041;-80
2023/10/29 03:17:04;;;;;;;;;;;;;;;13.46;70.79;99629.53;5072755;28;20014;-80
2023/10/29 03:19:30;;;;;;;9.75;4.72;;;;;;;13.61;69.99;99613.22;5071381;28;20378;-80
2023/10/29 03:21:55;;;;;;;;;;;;;;;13.59;70.73;99632.72;5071406;28;20563;-80
2023/10/29 03:24:21;;;;;;;9.25;3.63;;;;;;;13.47;71.23;99638.34;5071926;28;19921;-80
2023/10/29 03:26:46;;;;;;;;;;;;;;;13.62;70.47;99645.88;5071836;28;20490;-76
2023/10/29 03:29:11;;;;;;;;;;;;;;;13.51;70.08;99645.31;5071535;28;19946;-77
2023/10/29 03:31:38;;;;;;;6.88;4.18;;;;;;;13.29;70.45;99608.78;5078704;28;20301;-77
2023/10/29 03:34:04;;;;;;;7.90;4.65;;;;;;;13.42;70.93;99647.31;5091082;28;20181;-77
2023/10/29 03:36:30;;;;;;;13.98;4.43;;;;;;;13.32;72.17;99642.28;5091592;28;20381;-78
2023/10/29 03:38:55;;;;;;;7.00;3.83;;;;;;;13.55;70.83;99655.78;5089370;28;20028;-78
2023/10/29 03:41:22;;;;;;;;;;;;;;;13.52;71.04;99655.03;5088454;28;20063;-78
2023/10/29 03:43:48;;;;;;;7.85;3.47;;;;;;;13.48;70.86;99646.25;5071585;28;20325;-78
2023/10/29 03:46:13;;;;;;;8.10;4.57;;;;;;;13.31;71.07;99636.09;5071189;28;20036;-78
2023/10/29 03:48:44;;;;;;;9.40;4.07;;;;;;;13.33;71.32;99631.69;5071791;28;20032;-78
2023/10/29 03:51:10;;;;;;;4.80;3.65;;;;;;;13.36;70.77;99631.59;5070806;28;20032;-79
2023/10/29 03:53:36;;;;;;;9.38;4.63;;;;;;;13.28;71.09;99632.66;5070671;28;20032;-79
2023/10/29 03:56:02;;;;;;;11.05;4.30;;;;;;;13.28;71.33;99652.06;5070584;28;20032;-78
2023/10/29 03:58:27;;;;;;;4.95;3.35;;;;;;;13.15;72.23;99626.84;5070892;28;20053;-78
2023/10/29 04:00:53;;;;;;;9.48;4.13;;;;;;;13.06;72.61;99665.00;5071916;28;20041;-79
2023/10/29 04:03:18;;;;;;;;;;;;;;;13.11;72.55;99670.19;5074558;28;20081;-78
2023/10/29 04:05:43;;;;;;;;;;;;;;;13.25;72.17;99678.66;5091418;28;19919;-78
2023/10/29 04:08:09;;;;;;;17.05;4.97;;;;;;;12.97;71.74;99626.41;5091395;28;19969;-78
2023/10/29 04:10:34;;;;;;;9.27;3.70;;;;;;;12.96;71.06;99648.50;5088854;28;20032;-78
2023/10/29 04:13:00;;;;;;;16.92;5.20;;;;;;;12.82;70.41;99643.56;5085427;28;20099;-78
2023/10/29 04:15:25;;;;;;;14.52;4.38;;;;;;;13.16;69.97;99692.13;5070129;28;20036;-78
2023/10/29 04:17:50;;;;;;;;;;;;;;;13.04;70.38;99683.59;5070982;28;20509;-79
2023/10/29 04:20:16;;;;;;;;;;;;;;;12.95;70.25;99681.19;5071844;28;20371;-77
2023/10/29 04:22:42;;;;;;;7.18;3.88;;;;;;;12.86;71.01;99679.63;5070082;28;19912;-77
2023/10/29 04:25:08;;;;;;;;;;;;;;;12.91;70.65;99698.03;5071178;28;20043;-77
2023/10/29 04:27:33;;;;;;;7.43;3.55;;;;;;;12.84;70.30;99676.16;5070348;28;20393;-76
2023/10/29 04:29:59;;;;;;;;;;;;;;;12.92;69.45;99707.72;5070780;28;20033;-78
2023/10/29 04:32:24;;;;;;;10.00;4.20;;;;;;;12.93;69.61;99704.19;5071416;28;19916;-78
2023/10/29 04:34:50;;;;;;;16.30;3.95;;;;;;;12.89;70.11;99700.72;5070378;28;20028;-77
2023/10/29 04:37:15;;;;;;;8.85;4.03;;;;;;;12.85;69.83;99688.47;5086483;28;20066;-77
2023/10/29 04:39:42;;;;;;;11.05;4.10;;;;;;;12.68;70.93;99680.06;5089492;28;20494;-77
2023/10/29 04:42:08;;;;;;;5.88;3.35;;;;;;;12.70;71.06;99683.56;5088355;28;20031;-78
2023/10/29 04:44:33;;;;;;;11.90;5.10;;;;;;;12.54;71.61;99667.16;5072684;28;20037;-77
2023/10/29 04:46:59;;;;;;;;;;;;;;;12.82;72.27;99711.50;5070914;28;20453;-77
2023/10/29 04:49:24;;;;;;;6.63;3.53;;;;;;;12.82;71.13;99701.78;5069810;28;19909;-78
2023/10/29 04:51:50;;;;;;;;;;;;;;;12.78;71.15;99723.94;5070740;28;20062;-77
2023/10/29 04:54:15;;;;;;;;;;;;;;;12.64;71.57;99724.25;5071634;28;19913;-77
2023/10/29 04:56:41;;;;;;;7.45;2.90;;;;;;;12.84;71.34;99722.94;5070463;28;19928;-78
2023/10/29 04:59:06;;;;;;;;;;;;;;;12.93;70.02;99725.38;5070048;28;20036;-78
2023/10/29 05:01:32;;;;;;;10.13;3.30;;;;;;;12.84;70.49;99722.94;5071200;28;20279;-79
2023/10/29 05:03:57;;;;;;;;;;;;;;;12.71;70.55;99727.63;5071220;28;20510;-79
2023/10/29 05:06:23;;;;;;;9.45;5.60;;;;;;;12.79;71.36;99732.75;5069865;28;19947;-79
2023/10/29 05:08:52;;;;;;;;;;;;;;;12.75;70.85;99739.03;5070764;28;20115;-79
2023/10/29 05:11:17;;;;;;;9.30;4.55;;;;;;;12.74;70.22;99722.25;5071607;28;19916;-78
2023/10/29 05:13:43;;;;;;;10.63;4.32;;;;;;;12.53;71.14;99713.06;5070004;28;20086;-79
2023/10/29 05:16:09;;;;;;;7.57;4.88;;;;;;;12.64;71.38;99726.91;5069614;28;20040;-79
2023/10/29 05:18:34;;;;;;;10.80;4.35;;;;;;;12.65;71.03;99726.00;5069888;28;20066;-78
2023/10/29 05:21:00;;;;;;;10.50;4.45;;;;;;;12.80;70.77;99740.66;5070541;28;20052;-79
2023/10/29 05:23:26;;;;;;;;;;;;;;;12.84;70.99;99752.06;5070096;28;20107;-79
2023/10/29 05:25:52;;;;;;;10.77;5.38;;;;;;;12.62;70.79;99706.66;5069111;28;19970;-78
2023/10/29 05:28:18;;;;;;;14.40;4.32;;;;;;;12.79;71.38;99738.03;5070983;28;20044;-79
2023/10/29 05:30:43;;;;;;;8.18;3.65;;;;;;;12.88;71.26;99749.31;5081518;28;20551;-80
2023/10/29 05:33:09;;;;;;;;;;;;;;;13.02;71.51;99764.84;5070590;28;20035;-78
2023/10/29 05:35:34;;;;;;;13.52;4.38;;;;;;;13.07;71.28;99747.06;5069168;28;19970;-79
2023/10/29 05:37:59;;;;;;;;;;;;;;;13.21;71.48;99767.06;5070804;28;20082;-80
2023/10/29 05:40:25;;;;;;;;;;;;;;;13.37;71.12;99771.06;5079825;28;19962;-83
2023/10/29 05:42:50;;;;;;;;;;;;;;;13.51;71.50;99768.09;5069234;28;19939;-79
2023/10/29 05:45:16;;;;;;;15.80;3.80;;;;;;;13.64;71.59;99773.06;5074822;28;19916;-79
2023/10/29 05:47:41;;;;;;;14.70;5.55;;;;;;;13.80;71.82;99779.72;5070166;28;20040;-80
2023/10/29 05:50:07;;;;;;;;;;;;;;;14.04;71.16;99788.78;5062385;28;20031;-78
2023/10/29 05:52:33;;;;;;;7.18;4.10;;;;;;;14.20;70.33;99751.22;5062944;28;20026;-79
2023/10/29 05:55:01;;;;;;;;;;;;;;;14.70;70.11;99801.06;5073527;28;20047;-80
2023/10/29 05:57:27;;;;;;;7.18;3.92;;;;;;;14.94;68.77;99770.25;5071493;28;19923;-78
2023/10/29 05:59:52;;;;;;;9.30;4.97;;;;;;;15.16;68.47;99792.53;5074040;28;20040;-77
2023/10/29 06:02:18;;;;;;;10.80;3.90;;;;;;;15.26;67.81;99761.22;5079263;28;20043;-80
2023/10/29 06:04:43;;;;;;;;;;;;;;;15.67;67.57;99804.13;5078074;28;20085;-78
2023/10/29 06:07:08;;;;;;;5.80;3.28;;;;;;;16.00;66.72;99805.72;5083354;28;19916;-80
2023/10/29 06:09:34;;;;;;;;;;;;;;;15.99;66.67;99809.28;5081911;28;20044;-79
2023/10/29 06:11:59;;;;;;;10.45;4.47;;;;;;;16.23;65.77;99784.44;5081213;28;19916;-82
2023/10/29 06:14:25;;;;;;;8.90;4.70;;;;;;;16.58;65.18;99813.38;5070921;28;20032;-79
2023/10/29 06:16:56;;;;;;;12.57;2.88;;;;;;;16.97;62.68;99826.94;5076060;28;20028;-81
2023/10/29 06:19:23;;;;;;;6.85;3.88;;;;;;;16.99;61.87;99814.47;5080126;28;20027;-80
2023/10/29 06:21:49;;;;;;;11.85;3.83;;;;;;;17.44;61.52;99825.09;5080155;28;20035;-81
2023/10/29 06:24:14;;;;;;;5.97;2.63;;;;;;;17.61;60.72;99821.72;5079242;28;20441;-80
2023/10/29 06:26:39;;;;;;;12.35;3.65;;;;;;;17.75;58.99;99799.81;5076956;28;20494;-79
2023/10/29 06:29:06;;;;;;;7.95;2.85;;;;;;;17.91;58.44;99813.41;5072199;28;20033;-79
2023/10/29 06:31:35;;;;;;;9.75;3.63;;;;;;;17.94;58.47;99795.44;5069524;28;20455;-81
2023/10/29 06:34:01;;;;;;;8.35;3.38;;;;;;;18.07;57.94;99793.09;5077274;28;20043;-78
2023/10/29 06:36:28;;;;;;;11.02;3.75;;;;;;;18.16;57.05;99791.81;5073086;28;20039;-81
2023/10/29 06:38:53;;;;;;;20.02;3.45;;;;;;;18.42;56.81;99828.03;5072630;28;20514;-80
2023/10/29 06:41:19;;;;;;;13.15;3.22;;;;;;;18.37;56.66;99825.56;5071389;28;20036;-80
2023/10/29 06:43:44;;;;;;;4.25;2.33;;;;;;;18.34;56.53;99809.69;5071290;28;20124;-80
2023/10/29 06:46:10;;;;;;;11.27;4.22;;;;;;;18.25;56.97;99836.81;5072572;28;20566;-83
2023/10/29 06:48:41;;;;;;;14.73;4.55;;;;;;;18.23;58.40;99852.88;5088301;28;20047;-81
2023/10/29 06:51:15;;;;;;;7.00;4.13;;;;;;;17.98;57.75;99845.09;5073352;28;20028;-79
2023/10/29 06:53:41;;;;;;;13.02;2.60;;;;;;;17.94;57.50;99816.78;5071410;28;20483;-84
2023/10/29 06:56:06;;;;;;;8.88;1.77;;;;;;;18.07;55.66;99831.34;5085447;28;20031;-80
2023/10/29 06:58:33;;;;;;;5.57;2.67;;;;;;;18.17;55.67;99825.59;5091243;28;20048;-82
2023/10/29 07:01:06;;;;;;;9.13;2.40;;;;;;;18.52;55.71;99833.81;5078840;28;20518;-79
2023/10/29 07:03:32;;;;;;;8.77;2.22;;;;;;;18.24;55.95;99814.59;5071273;28;20028;-77
2023/10/29 07:06:08;;;;;;;3.55;2.35;;;;;;;18.47;55.73;99812.66;5072551;28;20487;-79
2023/10/29 07:08:35;;;;;;;10.10;2.47;;;;;;;18.55;54.04;99813.19;5069575;28;20035;-80
2023/10/29 07:11:02;;;;;;;5.32;3.17;;;;;;;18.47;55.03;99847.38;5073076;28;20051;-79
2023/10/29 07:13:30;;;;;;;6.03;2.80;;;;;;;18.55;54.19;99866.63;5089652;28;20040;-83
2023/10/29 07:15:55;;;;;;;8.18;2.83;;;;;;;18.92;53.86;99861.41;5090279;28;20049;-82
2023/10/29 07:18:24;;;;;;;4.70;2.65;;;;;;;19.28;53.17;99842.75;5090947;28;20036;-82
2023/10/29 07:20:53;;;;;;;7.63;2.35;;;;;;;19.21;52.54;99827.94;5086597;28;20553;-80
2023/10/29 07:23:20;;;;;;;4.47;2.03;;;;;;;19.46;52.10;99824.03;5081969;28;20371;-82
2023/10/29 07:25:47;;;;;;;7.55;2.67;;;;;;;19.28;51.99;99833.88;5083318;28;20548;-80
2023/10/29 07:28:14;;;;;;;5.95;1.73;;;;;;;19.49;52.23;99846.19;5078776;28;20024;-80
2023/10/29 07:30:39;;;;;;;9.63;2.90;;;;;;;19.91;50.94;99848.59;5065032;28;20464;-81
2023/10/29 07:33:05;;;;;;;12.52;3.05;;;;;;;20.03;51.18;99823.88;5065842;28;20052;-79
2023/10/29 07:35:31;;;;;;;11.68;1.88;;;;;;;19.95;50.09;99828.75;5066491;28;20396;-79
2023/10/29 07:37:56;;;;;;;6.80;2.55;;;;;;;20.39;50.94;99850.53;5066919;28;20036;-81
2023/10/29 07:40:22;;;;;;;4.53;2.20;;;;;;;20.83;49.04;99834.84;5065829;28;20469;-81
2023/10/29 07:42:47;;;;;;;3.83;2.25;;;;;;;21.14;48.96;99808.97;5066465;28;20028;-81
2023/10/29 07:45:13;;;;;;;2.92;1.67;;;;;;;21.65;47.32;99833.78;5066395;28;20040;-82
2023/10/29 07:47:38;;;;;;;5.70;1.90;;;;;;;21.97;44.78;99836.38;5066600;28;20086;-83
2023/10/29 07:50:04;;;;;;;7.15;2.00;;;;;;;21.87;44.71;99821.75;5065493;28;20033;-81
2023/10/29 07:52:30;;;;;;;3.80;1.73;;;;;;;21.80;46.19;99837.38;5065833;28;20055;-81
2023/10/29 07:54:55;;;;;;;6.85;1.95;;;;;;;22.11;45.32;99808.69;5068158;28;20479;-81
2023/10/29 07:57:21;;;;;;;4.32;1.98;;;;;;;22.30;43.98;99816.47;5068613;28;20090;-83
2023/10/29 07:59:46;;;;;;;3.38;1.55;;;;;;;22.52;44.07;99819.59;5068093;28;20032;-79
2023/10/29 08:02:12;;;;;;;2.63;1.63;;;;;;;22.64;43.00;99807.16;5067144;28;20036;-82
2023/10/29 08:04:37;;;;;;;3.97;1.73;;;;;;;22.52;43.25;99829.44;5069915;28;20060;-81
2023/10/29 08:07:04;;;;;;;6.30;1.38;;;;;;;22.51;42.59;99830.44;5067515;28;20024;-80
2023/10/29 08:09:29;;;;;;;5.47;1.65;;;;;;;22.27;43.18;99793.31;5067636;28;20415;-81
2023/10/29 08:11:55;;;;;;;4.60;2.42;;;;;;;22.43;43.01;99830.03;5068541;28;20035;-84
2023/10/29 08:14:20;;;;;;;4.50;1.77;;;;;;;22.19;43.80;99849.34;5067226;28;20033;-81
2023/10/29 08:16:45;;;;;;;4.43;1.30;;;;;;;22.29;43.48;99842.47;5068329;28;20160;-82
2023/10/29 08:19:11;;;;;;;5.65;1.95;;;;;;;22.33;43.62;99827.91;5079315;28;20026;-81
2023/10/29 08:21:36;;;;;;;4.07;1.60;;;;;;;22.57;44.89;99821.97;5066839;28;20095;-84
2023/10/29 08:24:02;;;;;;;2.45;1.27;;;;;;;22.95;43.43;99845.56;5056632;28;20036;-85
2023/10/29 08:26:29;;;;;;;3.95;2.55;;;;;;;22.90;43.15;99853.06;5071996;28;20040;-82
2023/10/29 08:28:55;;;;;;;1.73;1.15;;;;;;;23.15;43.00;99860.44;5068131;28;20407;-80
2023/10/29 08:31:21;;;;;;;4.43;1.42;;;;;;;23.49;42.09;99862.75;5067925;28;20036;-82
2023/10/29 08:33:47;;;;;;;3.35;1.55;;;;;;;23.63;42.07;99856.47;5073355;28;20093;-81
2023/10/29 08:36:16;;;;;;;3.83;1.65;;;;;;;23.39;41.28;99830.22;5087523;28;20040;-83
2023/10/29 08:38:42;;;;;;;10.55;2.13;;;;;;;23.27;42.34;99877.63;5069811;28;20119;-85
2023/10/29 08:41:15;;;;;;;4.72;1.33;;;;;;;22.95;42.29;99864.38;5075499;28;20518;-80
2023/10/29 08:43:41;;;;;;;4.40;1.30;;;;;;;22.98;42.54;99880.31;5080504;28;20047;-82
2023/10/29 08:46:07;;;;;;;6.40;1.50;;;;;;;22.97;43.16;99880.41;5082439;28;20032;-80
2023/10/29 08:48:33;;;;;;;6.75;2.05;;;;;;;22.70;44.28;99889.28;5068835;28;20039;-80
2023/10/29 08:50:58;;;;;;;4.45;1.75;;;;;;;22.36;44.45;99888.66;5070050;28;20020;-81
2023/10/29 08:53:24;;;;;;;2.00;1.40;;;;;;;22.34;44.57;99882.53;5069305;28;20525;-81
2023/10/29 08:55:51;;;;;;;5.25;1.63;;;;;;;22.50;44.52;99879.75;5083873;28;20481;-81
2023/10/29 08:58:17;;;;;;;2.47;1.65;;;;;;;22.84;44.86;99889.25;5082565;28;20048;-81
2023/10/29 09:00:43;;;;;;;8.20;2.47;;;;;;;22.87;44.74;99888.22;5069345;28;20116;-82
2023/10/29 09:03:08;;;;;;;4.88;1.55;;;;;;;22.59;44.00;99868.44;5068852;28;20029;-81
2023/10/29 09:05:34;;;;;;;4.82;1.67;;;;;;;22.89;43.89;99887.16;5083901;28;20063;-81
2023/10/29 09:07:59;;;;;;;5.22;1.63;;;;;;;22.78;43.70;99873.50;5087181;28;20063;-82
2023/10/29 09:10:24;;;;;;;2.20;1.30;;;;;;;22.93;44.52;99879.75;5082244;28;20025;-81
2023/10/29 09:12:50;;;;;;;2.22;1.10;;;;;;;22.87;43.60;99867.56;5070000;28;20456;-81
2023/10/29 09:15:15;;;;;;;3.97;1.20;;;;;;;23.24;42.99;99884.06;5070950;28;20135;-82
2023/10/29 09:17:41;;;;;;;3.20;1.42;;;;;;;23.30;42.23;99861.28;5069223;28;20028;-79
2023/10/29 09:20:08;;;;;;;6.47;3.17;;;;;;;23.46;41.57;99887.19;5069677;28;20047;-80
2023/10/29 09:22:33;;;;;;;4.50;1.95;;;;;;;23.58;41.46;99889.06;5080755;28;20036;-81
2023/10/29 09:24:59;;;;;;;6.07;1.65;;;;;;;23.63;40.85;99870.78;5085964;28;20123;-81
2023/10/29 09:27:24;;;;;;;3.38;1.65;;;;;;;23.76;40.44;99892.38;5071708;28;20039;-81
2023/10/29 09:29:49;;;;;;;8.45;1.60;;;;;;;23.68;40.71;99868.66;5068408;28;20040;-80
2023/10/29 09:32:16;;;;;;;2.13;1.10;;;;;;;23.81;40.27;99865.13;5066749;28;20028;-80
2023/10/29 09:34:42;;;;;;;0.95;0.70;;;;;;;23.79;40.02;99867.94;5072867;28;20048;-80
2023/10/29 09:37:08;;;;;;;0.60;0.60;;;;;;;23.76;40.14;99850.16;5072540;28;20060;-82
2023/10/29 09:39:33;;;;;;;5.32;1.20;;;;;;;23.71;39.47;99832.56;5071407;28;20033;-83
2023/10/29 09:42:08;;;;;;;1.90;1.42;;;;;;;23.86;38.97;99860.34;5069923;28;20032;-80
2023/10/29 09:44:39;;;;;;;2.70;1.30;;;;;;;23.98;38.85;99864.88;5070427;28;20488;-81
2023/10/29 09:47:18;;;;;;;2.28;0.95;;;;;;;24.04;38.93;99842.91;5069835;28;20044;-80
2023/10/29 09:49:44;;;;;;;4.75;1.45;;;;;;;24.13;38.18;99847.66;5071104;28;20063;-79
2023/10/29 09:52:09;;;;;;;5.30;1.67;;;;;;;24.19;37.81;99853.59;5070307;28;20063;-81
2023/10/29 09:54:39;;;;;;;4.88;1.20;;;;;;;23.99;37.67;99852.25;5080713;28;20730;-82
2023/10/29 09:57:06;;;;;;;2.28;0.80;;;;;;;24.01;38.06;99820.72;5070404;28;20029;-81
2023/10/29 09:59:33;;;;;;;23.33;8.63;;;;;;;24.31;38.34;99834.75;5071872;28;20032;-79
2023/10/29 10:01:58;;;;;;;28.48;14.57;;;;;;;24.46;37.34;99816.63;5067279;28;20049;-82
2023/10/29 10:04:24;;;;;;;684.03;332.52;;;;;;;24.43;37.13;99808.75;5052754;28;20110;-81
2023/10/29 10:06:51;;;;;;;90.15;51.17;;;;;;;24.90;36.91;99833.31;5084736;28;20046;-81
2023/10/29 10:09:16;;;;;;;43.88;39.47;;;;;;;24.76;35.97;99792.97;5089493;28;20032;-80
2023/10/29 10:11:42;;;;;;;1097.00;433.58;;;;;;;25.12;36.21;99837.16;5071756;28;20078;-81
2023/10/29 10:14:07;;;;;;;251.32;194.32;;;;;;;25.23;35.42;99830.97;5072381;28;20415;-80
2023/10/29 10:16:33;;;;;;;381.65;227.00;;;;;;;24.75;35.41;99802.06;5072380;28;20027;-80
2023/10/29 10:18:59;;;;;;;37.20;22.45;;;;;;;24.75;35.68;99832.59;5073462;28;20087;-81
2023/10/29 10:21:39;;;;;;;386.15;285.00;;;;;;;25.14;35.36;99833.34;5073666;28;20036;-78
2023/10/29 10:24:06;;;;;;;278.10;128.75;;;;;;;25.24;34.73;99819.16;5074790;28;20051;-81
2023/10/29 10:26:36;;;;;;;39.47;17.48;;;;;;;25.38;34.67;99803.72;5092821;28;20028;-80
2023/10/29 10:29:07;;;;;;;19.45;3.22;;;;;;;25.21;35.21;99782.50;5090318;28;20024;-81
2023/10/29 10:31:36;;;;;;;3.53;1.60;;;;;;;25.22;34.94;99796.84;5087158;28;20032;-80
2023/10/29 10:34:11;;;;;;;2.65;1.02;;;;;;;25.39;34.90;99820.75;5069100;28;20047;-82
2023/10/29 10:36:37;;;;;;;3.60;1.23;;;;;;;25.17;34.82;99783.69;5069581;28;20050;-81
2023/10/29 10:39:02;;;;;;;1.63;0.98;;;;;;;25.28;34.50;99796.38;5071139;28;20032;-81
2023/10/29 10:41:45;;;;;;;4.22;1.10;;;;;;;25.23;35.01;99796.72;5073087;28;20505;-81
2023/10/29 10:44:15;;;;;;;2.75;0.95;;;;;;;25.17;34.04;99807.97;5070918;28;20028;-81
2023/10/29 10:46:48;;;;;;;1.63;1.00;;;;;;;25.18;34.53;99807.00;5085102;28;20032;-81
2023/10/29 10:49:14;;;;;;;1.95;0.75;;;;;;;25.18;33.67;99786.28;5091189;28;20043;-81
2023/10/29 10:51:40;;;;;;;1.52;0.90;;;;;;;25.17;34.30;99800.72;5090501;28;20035;-80
2023/10/29 10:54:07;;;;;;;1.25;1.02;;;;;;;25.30;34.38;99786.34;5070693;28;20850;-83
2023/10/29 10:56:35;;;;;;;6.15;1.45;;;;;;;25.41;34.25;99783.72;5066388;28;20086;-81
2023/10/29 10:59:06;;;;;;;4.05;1.20;;;;;;;25.40;33.79;99767.66;5068735;28;20055;-83
2023/10/29 11:01:33;;;;;;;5.57;1.27;;;;;;;25.51;33.64;99770.38;5088726;28;20180;-82
2023/10/29 11:04:03;;;;;;;5.72;0.88;;;;;;;25.17;33.62;99748.59;5090446;28;20035;-82
2023/10/29 11:06:30;;;;;;;4.53;1.48;;;;;;;25.34;33.94;99779.75;5088503;28;20028;-80
2023/10/29 11:08:56;;;;;;;2.83;0.80;;;;;;;25.35;34.15;99785.03;5071479;28;20024;-80
2023/10/29 11:11:28;;;;;;;2.33;0.98;;;;;;;25.57;33.72;99806.88;5070470;28;20024;-80
2023/10/29 11:14:11;;;;;;;3.55;0.85;;;;;;;25.27;33.87;99775.75;5071107;28;20039;-83
2023/10/29 11:16:55;;;;;;;5.03;1.45;;;;;;;25.32;33.90;99793.38;5071832;28;20157;-81
2023/10/29 11:19:44;;;;;;;0.98;0.63;;;;;;;25.23;33.82;99790.47;5069293;28;20028;-82
2023/10/29 11:22:14;;;;;;;5.20;1.10;;;;;;;25.19;32.66;99777.22;5074120;28;20028;-82
2023/10/29 11:24:40;;;;;;;3.70;1.20;;;;;;;25.29;32.49;99784.66;5075462;28;20447;-82
2023/10/29 11:27:44;;;;;;;1.10;0.75;;;;;;;25.45;32.06;99782.50;5071149;28;20078;-83
2023/10/29 11:30:16;;;;;;;1.77;1.60;;;;;;;25.32;32.64;99785.28;5063212;28;20398;-82
2023/10/29 11:32:44;;;;;;;1.58;0.55;;;;;;;25.19;33.32;99781.72;5068792;28;20494;-81
2023/10/29 11:35:15;;;;;;;4.72;1.50;;;;;;;25.17;33.33;99786.38;5069574;28;20044;-82
2023/10/29 11:37:44;;;;;;;1.83;0.40;;;;;;;25.17;33.14;99757.56;5067843;28;20035;-81